createdAt,value
2019-03-27T00:01:40.059Z,89.42
2019-03-27T00:04:11.338Z,89.48
2019-03-27T00:06:42.651Z,89.86
2019-03-27T00:09:13.970Z,90.21
2019-03-27T00:11:45.245Z,90.21
2019-03-27T00:14:16.597Z,90.55
2019-03-27T00:16:48.007Z,90.57
2019-03-27T00:19:19.324Z,90.89
2019-03-27T00:21:50.582Z,91.03
2019-03-27T00:24:21.982Z,90.88
2019-03-27T00:26:53.302Z,91.26
2019-03-27T00:29:24.615Z,91.20
2019-03-27T00:31:56.015Z,91.24
2019-03-27T00:34:27.283Z,91.25
2019-03-27T00:36:58.573Z,91.25
2019-03-27T00:39:29.985Z,91.12
2019-03-27T00:42:01.310Z,91.42
2019-03-27T00:44:32.629Z,91.65
2019-03-27T00:47:03.972Z,91.82
2019-03-27T00:49:35.296Z,91.93
2019-03-27T00:52:06.611Z,92.12
2019-03-27T00:54:37.876Z,91.97
2019-03-27T00:57:09.243Z,92.11
2019-03-27T00:59:40.516Z,92.08
2019-03-27T01:02:11.939Z,92.32
2019-03-27T01:04:43.304Z,92.56
2019-03-27T01:07:14.632Z,92.68
2019-03-27T01:09:45.961Z,92.72
2019-03-27T01:12:17.321Z,92.61
2019-03-27T01:14:48.673Z,92.24
2019-03-27T01:17:20.045Z,92.13
2019-03-27T01:19:51.440Z,92.25
2019-03-27T01:22:22.750Z,92.28
2019-03-27T01:24:54.016Z,92.46
2019-03-27T01:27:25.253Z,92.60
2019-03-27T01:29:56.578Z,92.60
2019-03-27T01:32:27.925Z,92.62
2019-03-27T01:34:59.247Z,92.77
2019-03-27T01:37:30.574Z,92.80
2019-03-27T01:40:02.771Z,92.51
2019-03-27T01:42:34.236Z,92.73
2019-03-27T01:45:05.862Z,92.96
2019-03-27T01:47:37.298Z,93.00
2019-03-27T01:50:09.520Z,92.83
2019-03-27T01:52:40.857Z,93.23
2019-03-27T01:55:12.248Z,93.32
2019-03-27T01:57:43.621Z,93.39
2019-03-27T02:00:16.085Z,93.45
2019-03-27T02:02:47.474Z,93.44
2019-03-27T02:05:18.844Z,93.36
2019-03-27T02:07:50.142Z,93.36
2019-03-27T02:10:21.504Z,93.41
2019-03-27T02:12:52.758Z,93.59
2019-03-27T02:15:24.098Z,93.60
2019-03-27T02:17:55.497Z,93.67
2019-03-27T02:20:26.711Z,93.65
2019-03-27T02:22:58.056Z,93.62
2019-03-27T02:25:29.338Z,93.34
2019-03-27T02:28:00.637Z,93.30
2019-03-27T02:30:31.903Z,93.30
2019-03-27T02:33:03.261Z,93.36
2019-03-27T02:35:34.522Z,93.46
2019-03-27T02:38:05.842Z,93.56
2019-03-27T02:40:37.227Z,93.62
2019-03-27T02:43:08.496Z,93.57
2019-03-27T02:45:39.805Z,93.76
2019-03-27T02:48:13.920Z,93.58
2019-03-27T02:50:44.080Z,93.47
2019-03-27T02:53:15.384Z,93.46
2019-03-27T02:55:46.698Z,93.59
2019-03-27T02:58:17.941Z,93.78
2019-03-27T03:00:49.286Z,93.69
2019-03-27T03:03:20.418Z,93.69
2019-03-27T03:05:51.715Z,93.75
2019-03-27T03:08:23.040Z,93.83
2019-03-27T03:10:54.389Z,93.66
2019-03-27T03:13:25.668Z,93.78
2019-03-27T03:15:56.983Z,93.88
2019-03-27T03:18:28.316Z,93.85
2019-03-27T03:20:59.618Z,93.63
2019-03-27T03:23:30.930Z,93.29
2019-03-27T03:26:02.246Z,93.44
2019-03-27T03:28:33.493Z,93.53
2019-03-27T03:31:04.819Z,93.55
2019-03-27T03:33:36.138Z,93.69
2019-03-27T03:36:07.463Z,93.50
2019-03-27T03:38:38.742Z,93.48
2019-03-27T03:41:10.196Z,93.52
2019-03-27T03:43:41.391Z,93.38
2019-03-27T03:46:12.646Z,93.31
2019-03-27T03:48:43.887Z,93.32
2019-03-27T03:51:16.097Z,93.26
2019-03-27T03:53:48.614Z,93.14
2019-03-27T03:56:21.831Z,92.87
2019-03-27T03:58:54.796Z,92.50
2019-03-27T04:01:28.966Z,92.40
2019-03-27T04:04:01.509Z,92.71
2019-03-27T04:06:32.776Z,92.47
2019-03-27T04:09:04.272Z,92.16
2019-03-27T04:11:35.623Z,92.21
2019-03-27T04:14:06.917Z,92.39
2019-03-27T04:16:38.187Z,92.37
2019-03-27T04:19:09.541Z,92.27
2019-03-27T04:21:40.844Z,92.39
2019-03-27T04:24:12.119Z,92.51
2019-03-27T04:26:43.441Z,92.35
2019-03-27T04:29:14.718Z,92.30
2019-03-27T04:31:46.005Z,92.53
2019-03-27T04:34:17.248Z,92.38
2019-03-27T04:36:48.557Z,92.29
2019-03-27T04:39:19.773Z,92.26
2019-03-27T04:41:51.016Z,92.25
2019-03-27T04:44:22.379Z,92.35
2019-03-27T04:46:53.684Z,91.97
2019-03-27T04:49:25.087Z,92.08
2019-03-27T04:51:56.347Z,92.04
2019-03-27T04:54:27.549Z,92.17
2019-03-27T04:56:58.933Z,92.22
2019-03-27T04:59:30.259Z,92.26
2019-03-27T05:02:02.398Z,92.23
2019-03-27T05:04:33.718Z,91.93
2019-03-27T05:07:05.056Z,92.20
2019-03-27T05:09:36.294Z,92.19
2019-03-27T05:12:07.625Z,91.86
2019-03-27T05:14:38.917Z,92.00
2019-03-27T05:17:10.226Z,92.27
2019-03-27T05:19:41.482Z,92.29
2019-03-27T05:22:12.831Z,92.30
2019-03-27T05:24:44.099Z,91.98
2019-03-27T05:27:15.317Z,91.96
2019-03-27T05:29:46.556Z,91.71
2019-03-27T05:32:17.895Z,91.87
2019-03-27T05:34:49.125Z,92.01
2019-03-27T05:37:20.436Z,91.85
2019-03-27T05:39:51.679Z,92.16
2019-03-27T05:42:22.872Z,92.22
2019-03-27T05:44:54.084Z,92.17
2019-03-27T05:47:25.404Z,92.01
2019-03-27T05:49:56.790Z,91.91
2019-03-27T05:52:28.107Z,91.78
2019-03-27T05:54:59.419Z,91.83
2019-03-27T05:57:30.644Z,92.04
2019-03-27T06:00:02.004Z,92.02
2019-03-27T06:02:33.330Z,91.50
2019-03-27T06:05:04.795Z,91.57
2019-03-27T06:07:36.152Z,91.47
2019-03-27T06:10:08.579Z,91.28
2019-03-27T06:12:40.265Z,91.45
2019-03-27T06:15:12.326Z,91.76
2019-03-27T06:17:43.615Z,91.73
2019-03-27T06:20:15.108Z,91.35
2019-03-27T06:22:46.338Z,91.45
2019-03-27T06:25:17.670Z,91.51
2019-03-27T06:27:48.965Z,91.68
2019-03-27T06:30:20.307Z,91.27
2019-03-27T06:32:51.541Z,91.10
2019-03-27T06:35:22.855Z,90.31
2019-03-27T06:37:54.202Z,90.82
2019-03-27T06:40:25.499Z,90.43
2019-03-27T06:42:56.847Z,90.30
2019-03-27T06:48:26.275Z,90.40
2019-03-27T06:50:51.511Z,90.30
2019-03-27T06:53:22.876Z,90.38
2019-03-27T06:55:54.108Z,90.10
2019-03-27T06:58:25.440Z,90.05
2019-03-27T07:00:56.756Z,89.66
2019-03-27T07:03:28.055Z,89.76
2019-03-27T07:05:59.318Z,89.68
2019-03-27T07:08:30.690Z,89.51
2019-03-27T07:11:01.860Z,89.50
2019-03-27T07:13:33.159Z,89.26
2019-03-27T07:16:04.464Z,88.85
2019-03-27T07:18:40.307Z,89.10
2019-03-27T07:21:08.839Z,88.54
2019-03-27T07:23:40.181Z,88.16
2019-03-27T07:26:11.435Z,87.99
2019-03-27T07:28:42.723Z,87.87
2019-03-27T07:31:14.053Z,87.65
2019-03-27T07:33:45.365Z,87.17
2019-03-27T07:36:16.734Z,86.49
2019-03-27T07:38:48.028Z,85.95
2019-03-27T07:41:19.293Z,85.77
2019-03-27T07:43:50.599Z,85.42
2019-03-27T07:46:21.914Z,85.24
2019-03-27T07:48:54.457Z,85.00
2019-03-27T07:51:25.876Z,84.70
2019-03-27T07:53:57.235Z,83.67
2019-03-27T07:56:28.545Z,83.73
2019-03-27T07:58:59.982Z,83.59
2019-03-27T08:01:31.372Z,83.27
2019-03-27T08:04:02.666Z,83.23
2019-03-27T08:06:33.969Z,82.87
2019-03-27T08:09:06.907Z,82.31
2019-03-27T08:11:38.236Z,81.50
2019-03-27T08:14:09.639Z,81.36
2019-03-27T08:16:40.887Z,80.18
2019-03-27T08:19:12.241Z,80.45
2019-03-27T08:21:43.529Z,79.89
2019-03-27T08:24:14.886Z,79.63
2019-03-27T08:26:46.203Z,79.97
2019-03-27T08:29:17.512Z,80.96
2019-03-27T08:31:48.896Z,80.47
2019-03-27T08:37:10.521Z,79.49
2019-03-27T08:39:41.833Z,79.71
2019-03-27T08:42:13.135Z,79.65
2019-03-27T08:44:44.469Z,79.58
2019-03-27T08:47:15.829Z,79.65
2019-03-27T08:49:47.114Z,79.38
2019-03-27T08:52:18.461Z,79.41
2019-03-27T08:54:49.758Z,78.51
2019-03-27T08:57:21.094Z,78.51
2019-03-27T08:59:52.341Z,78.52
2019-03-27T09:02:23.548Z,78.28
2019-03-27T09:04:54.898Z,77.31
2019-03-27T09:07:26.222Z,77.60
2019-03-27T09:09:57.473Z,78.01
2019-03-27T09:12:28.844Z,78.06
2019-03-27T09:15:00.098Z,76.98
2019-03-27T09:17:31.541Z,77.48
2019-03-27T09:20:02.849Z,77.68
2019-03-27T09:22:34.076Z,77.02
2019-03-27T09:25:05.980Z,76.60
2019-03-27T09:27:37.253Z,75.77
2019-03-27T09:30:10.838Z,76.34
2019-03-27T09:32:42.132Z,75.96
2019-03-27T09:35:13.554Z,75.86
2019-03-27T09:37:44.912Z,75.51
2019-03-27T09:40:16.414Z,76.20
2019-03-27T09:42:47.690Z,77.65
2019-03-27T09:45:19.231Z,78.07
2019-03-27T09:47:50.521Z,78.41
2019-03-27T09:50:21.788Z,78.54
2019-03-27T09:52:53.042Z,78.25
2019-03-27T09:55:24.341Z,78.35
2019-03-27T09:57:55.641Z,78.22
2019-03-27T10:01:05.475Z,78.21
2019-03-27T10:03:36.761Z,78.71
2019-03-27T10:06:08.069Z,78.40
2019-03-27T10:08:39.403Z,78.62
2019-03-27T10:11:10.691Z,79.19
2019-03-27T10:13:41.959Z,80.57
2019-03-27T10:16:13.287Z,80.65
2019-03-27T10:18:47.297Z,81.40
2019-03-27T10:21:17.689Z,81.68
2019-03-27T10:23:48.984Z,81.60
2019-03-27T10:26:20.353Z,81.56
2019-03-27T10:28:51.806Z,81.22
2019-03-27T10:31:23.089Z,81.96
2019-03-27T10:33:54.390Z,83.03
2019-03-27T10:36:25.801Z,83.85
2019-03-27T10:38:56.937Z,85.02
2019-03-27T10:41:28.242Z,85.93
2019-03-27T10:43:59.700Z,86.18
2019-03-27T10:46:30.913Z,87.22
2019-03-27T10:49:02.185Z,87.07
2019-03-27T10:51:33.503Z,87.81
2019-03-27T10:54:04.899Z,88.07
2019-03-27T10:56:36.240Z,88.88
2019-03-27T10:59:07.562Z,89.28
2019-03-27T11:01:38.819Z,90.18
2019-03-27T11:04:10.137Z,90.84
2019-03-27T11:06:41.504Z,90.94
2019-03-27T11:09:12.771Z,91.21
2019-03-27T11:11:43.896Z,92.28
2019-03-27T11:14:15.132Z,92.62
2019-03-27T11:16:46.415Z,93.01
2019-03-27T11:19:17.730Z,93.49
2019-03-27T11:21:49.033Z,93.65
2019-03-27T11:24:20.223Z,93.84
2019-03-27T11:26:51.523Z,93.90
2019-03-27T11:29:22.840Z,94.00
2019-03-27T11:31:54.059Z,94.22
2019-03-27T11:34:25.388Z,94.22
2019-03-27T11:36:56.735Z,94.50
2019-03-27T11:39:27.946Z,94.56
2019-03-27T11:42:00.744Z,94.29
2019-03-27T11:44:32.295Z,94.51
2019-03-27T11:47:03.581Z,94.56
2019-03-27T11:49:34.920Z,94.75
2019-03-27T11:52:06.232Z,94.92
2019-03-27T11:54:37.547Z,95.23
2019-03-27T11:57:08.793Z,95.35
2019-03-27T11:59:52.924Z,95.17
2019-03-27T12:02:13.164Z,95.39
2019-03-27T12:04:44.509Z,95.57
2019-03-27T12:07:15.863Z,95.78
2019-03-27T12:09:47.154Z,96.06
2019-03-27T12:12:18.347Z,95.94
2019-03-27T12:14:49.544Z,96.11
2019-03-27T12:17:20.848Z,95.92
2019-03-27T12:19:52.251Z,96.16
2019-03-27T12:22:23.482Z,96.17
2019-03-27T12:24:54.841Z,96.18
2019-03-27T12:27:26.083Z,96.16
2019-03-27T12:29:57.391Z,96.09
2019-03-27T12:32:28.580Z,95.89
2019-03-27T12:34:59.784Z,95.98
2019-03-27T12:37:31.071Z,95.94
2019-03-27T12:40:11.032Z,95.65
2019-03-27T12:42:35.384Z,95.69
2019-03-27T12:45:07.459Z,96.02
2019-03-27T12:47:38.747Z,96.29
2019-03-27T12:50:10.432Z,96.33
2019-03-27T12:52:41.645Z,96.42
2019-03-27T12:55:12.954Z,96.33
2019-03-27T12:57:44.200Z,96.48
2019-03-27T13:00:15.894Z,96.57
2019-03-27T13:02:47.235Z,96.53
2019-03-27T13:05:18.539Z,96.83
2019-03-27T13:07:50.523Z,96.56
2019-03-27T13:10:21.808Z,96.10
2019-03-27T13:12:53.172Z,96.22
2019-03-27T13:15:24.448Z,96.32
2019-03-27T13:17:55.669Z,96.41
2019-03-27T13:20:27.026Z,96.80
2019-03-27T13:22:58.235Z,96.82
2019-03-27T13:25:29.469Z,96.78
2019-03-27T13:28:00.817Z,96.59
2019-03-27T13:30:32.083Z,96.65
2019-03-27T13:33:03.404Z,96.86
2019-03-27T13:35:34.723Z,96.94
2019-03-27T13:38:06.008Z,96.86
2019-03-27T13:40:37.322Z,96.75
2019-03-27T13:43:09.590Z,96.74
2019-03-27T13:45:40.987Z,96.66
2019-03-27T13:48:12.268Z,96.58
2019-03-27T13:50:43.595Z,96.76
2019-03-27T13:53:14.887Z,96.95
2019-03-27T13:55:46.207Z,96.94
2019-03-27T13:58:17.368Z,96.87
2019-03-27T14:00:48.650Z,97.05
2019-03-27T14:03:19.939Z,96.79
2019-03-27T14:05:51.263Z,96.78
2019-03-27T14:08:22.472Z,96.89
2019-03-27T14:10:53.713Z,96.90
2019-03-27T14:13:24.917Z,96.67
2019-03-27T14:15:56.093Z,96.92
2019-03-27T14:18:27.445Z,96.91
2019-03-27T14:20:58.750Z,96.99
2019-03-27T14:23:30.026Z,97.10
2019-03-27T14:26:01.137Z,97.07
2019-03-27T14:28:32.457Z,97.09
2019-03-27T14:31:04.032Z,97.02
2019-03-27T14:33:35.333Z,97.16
2019-03-27T14:36:06.694Z,97.17
2019-03-27T14:38:37.968Z,97.27
2019-03-27T14:41:09.248Z,97.39
2019-03-27T14:43:40.483Z,97.42
2019-03-27T14:46:11.778Z,97.35
2019-03-27T14:48:43.080Z,97.40
2019-03-27T14:51:14.444Z,97.39
2019-03-27T14:53:45.648Z,97.44
2019-03-27T14:56:16.936Z,97.55
2019-03-27T14:58:48.316Z,97.54
2019-03-27T15:01:19.610Z,97.64
2019-03-27T15:03:50.890Z,97.74
2019-03-27T15:06:22.184Z,97.83
2019-03-27T15:08:53.448Z,97.84
2019-03-27T15:11:24.786Z,97.75
2019-03-27T15:13:56.148Z,97.78
2019-03-27T15:16:27.393Z,97.94
2019-03-27T15:18:58.625Z,98.08
2019-03-27T15:21:29.958Z,98.07
2019-03-27T15:24:01.284Z,98.05
2019-03-27T15:26:32.477Z,98.05
2019-03-27T15:29:03.826Z,98.13
2019-03-27T15:31:35.176Z,98.21
2019-03-27T15:34:06.427Z,98.22
2019-03-27T15:36:37.799Z,98.23
2019-03-27T15:39:09.793Z,98.30
2019-03-27T15:41:41.136Z,98.35
2019-03-27T15:44:12.429Z,98.35
2019-03-27T15:46:43.739Z,98.30
2019-03-27T15:49:15.061Z,98.24
2019-03-27T15:51:46.381Z,98.29
2019-03-27T15:54:17.725Z,98.33
2019-03-27T15:56:49.050Z,98.35
2019-03-27T15:59:20.391Z,98.41
2019-03-27T16:01:51.793Z,98.42
2019-03-27T16:04:23.084Z,98.32
2019-03-27T16:06:54.440Z,98.23
2019-03-27T16:09:25.850Z,98.26
2019-03-27T16:11:57.193Z,98.32
2019-03-27T16:14:28.632Z,98.33
2019-03-27T16:17:12.725Z,98.30
2019-03-27T16:19:33.017Z,98.20
2019-03-27T16:22:04.496Z,98.13
2019-03-27T16:24:35.747Z,98.03
2019-03-27T16:27:07.133Z,97.99
2019-03-27T16:29:38.480Z,98.13
2019-03-27T16:32:09.899Z,98.08
2019-03-27T16:34:41.235Z,98.00
2019-03-27T16:37:13.813Z,97.99
2019-03-27T16:39:48.270Z,98.10
2019-03-27T16:42:19.491Z,97.96
2019-03-27T16:44:50.843Z,97.85
2019-03-27T16:47:22.835Z,97.89
2019-03-27T16:49:54.334Z,97.85
2019-03-27T16:52:25.752Z,97.91
2019-03-27T16:54:57.126Z,97.90
2019-03-27T16:57:28.364Z,97.96
2019-03-27T16:59:59.864Z,97.94
2019-03-27T17:02:31.279Z,97.90
2019-03-27T17:05:02.637Z,97.90
2019-03-27T17:07:33.926Z,98.02
2019-03-27T17:10:05.473Z,98.14
2019-03-27T17:12:36.978Z,98.18
2019-03-27T17:15:08.719Z,98.22
2019-03-27T17:17:40.084Z,98.31
2019-03-27T17:20:12.702Z,98.35
2019-03-27T17:22:44.084Z,98.38
2019-03-27T17:25:15.475Z,98.28
2019-03-27T17:27:46.950Z,98.31
2019-03-27T17:30:18.969Z,98.27
2019-03-27T17:32:50.282Z,98.36
2019-03-27T17:35:21.559Z,98.34
2019-03-27T17:37:53.002Z,98.39
2019-03-27T17:40:24.573Z,98.39
2019-03-27T17:42:56.021Z,98.39
2019-03-27T17:45:27.492Z,98.42
2019-03-27T17:47:58.962Z,98.50
2019-03-27T17:50:30.277Z,98.48
2019-03-27T17:53:01.576Z,98.49
2019-03-27T17:55:33.019Z,98.50
2019-03-27T17:58:04.555Z,98.50
2019-03-27T18:00:52.779Z,98.44
2019-03-27T18:03:24.198Z,98.49
2019-03-27T18:05:55.527Z,98.45
2019-03-27T18:08:26.876Z,98.39
2019-03-27T18:10:58.212Z,98.30
2019-03-27T18:13:29.537Z,98.31
2019-03-27T18:16:00.931Z,98.24
2019-03-27T18:18:32.207Z,98.29
2019-03-27T18:21:03.568Z,98.41
2019-03-27T18:23:45.235Z,98.40
2019-03-27T18:26:08.225Z,98.42
2019-03-27T18:28:39.521Z,98.41
2019-03-27T18:31:10.819Z,98.38
2019-03-27T18:33:42.131Z,98.37
2019-03-27T18:36:13.502Z,98.44
2019-03-27T18:38:46.052Z,98.40
2019-03-27T18:41:17.594Z,98.36
2019-03-27T18:43:48.980Z,98.33
2019-03-27T18:46:20.282Z,98.33
2019-03-27T18:48:51.590Z,98.29
2019-03-27T18:51:22.929Z,98.01
2019-03-27T18:53:59.970Z,97.76
2019-03-27T18:59:19.928Z,97.50
2019-03-27T19:01:51.337Z,97.54
2019-03-27T19:04:22.731Z,97.46
2019-03-27T19:06:54.169Z,97.46
2019-03-27T19:09:25.607Z,97.44
2019-03-27T19:11:56.970Z,97.43
2019-03-27T19:14:28.317Z,97.27
2019-03-27T19:16:59.641Z,97.28
2019-03-27T19:19:30.915Z,97.27
2019-03-27T19:22:02.221Z,97.38
2019-03-27T19:24:33.517Z,97.43
2019-03-27T19:27:06.506Z,97.36
2019-03-27T19:29:37.886Z,97.35
2019-03-27T19:32:09.121Z,97.19
2019-03-27T19:34:40.487Z,97.28
2019-03-27T19:37:11.870Z,97.36
2019-03-27T19:39:43.221Z,97.44
2019-03-27T19:42:14.619Z,97.33
2019-03-27T19:44:45.859Z,97.37
2019-03-27T19:47:17.156Z,97.37
2019-03-27T19:49:48.404Z,97.45
2019-03-27T19:52:19.902Z,97.51
2019-03-27T19:54:51.202Z,97.55
2019-03-27T19:57:22.439Z,97.65
2019-03-27T19:59:53.836Z,97.61
2019-03-27T20:02:25.069Z,97.60
2019-03-27T20:04:56.547Z,97.58
2019-03-27T20:07:35.824Z,97.67
2019-03-27T20:10:00.915Z,97.57
2019-03-27T20:12:32.220Z,97.59
2019-03-27T20:15:11.864Z,97.71
2019-03-27T20:17:36.738Z,97.70
2019-03-27T20:20:09.657Z,97.68
2019-03-27T20:22:41.053Z,97.74
2019-03-27T20:25:14.839Z,97.72
2019-03-27T20:27:45.550Z,97.52
2019-03-27T20:30:19.550Z,97.62
2019-03-27T20:32:50.916Z,97.62
2019-03-27T20:35:23.093Z,97.63
2019-03-27T20:37:54.579Z,97.58
2019-03-27T20:40:27.720Z,97.61
2019-03-27T20:42:58.989Z,97.69
2019-03-27T20:45:30.226Z,97.76
2019-03-27T20:48:01.582Z,97.62
2019-03-27T20:50:32.891Z,97.61
2019-03-27T20:53:04.143Z,97.65
2019-03-27T20:55:35.393Z,97.61
2019-03-27T20:58:06.777Z,97.67
2019-03-27T21:00:38.148Z,97.65
2019-03-27T21:03:09.493Z,97.61
2019-03-27T21:05:40.809Z,97.63
2019-03-27T21:08:12.162Z,97.68
2019-03-27T21:10:43.425Z,97.62
2019-03-27T21:13:14.750Z,97.67
2019-03-27T21:15:46.027Z,97.67
2019-03-27T21:18:17.481Z,97.56
2019-03-27T21:20:48.806Z,97.49
2019-03-27T21:23:20.121Z,97.46
2019-03-27T21:25:51.621Z,97.51
2019-03-27T21:28:22.855Z,97.60
2019-03-27T21:30:54.167Z,97.61
2019-03-27T21:33:25.542Z,97.65
2019-03-27T21:35:56.913Z,97.79
2019-03-27T21:38:28.222Z,97.80
2019-03-27T21:40:59.605Z,97.80
2019-03-27T21:43:30.825Z,97.78
2019-03-27T21:46:02.142Z,97.80
2019-03-27T21:48:33.703Z,97.84
2019-03-27T21:51:05.035Z,97.90
2019-03-27T21:53:37.169Z,97.95
2019-03-27T21:56:08.531Z,97.87
2019-03-27T21:58:39.842Z,97.94
2019-03-27T22:01:11.283Z,98.03
2019-03-27T22:03:42.637Z,98.01
2019-03-27T22:06:13.935Z,97.99
2019-03-27T22:08:45.246Z,97.96
2019-03-27T22:11:16.583Z,97.98
2019-03-27T22:13:47.878Z,97.96
2019-03-27T22:16:19.295Z,98.01
2019-03-27T22:18:50.675Z,98.00
2019-03-27T22:21:22.020Z,97.97
2019-03-27T22:23:53.404Z,98.01
2019-03-27T22:26:24.774Z,98.08
2019-03-27T22:28:56.122Z,98.06
2019-03-27T22:31:27.428Z,98.07
2019-03-27T22:33:58.794Z,98.13
2019-03-27T22:36:30.131Z,98.16
2019-03-27T22:39:01.439Z,98.00
2019-03-27T22:41:32.733Z,97.92
2019-03-27T22:44:04.062Z,97.97
2019-03-27T22:46:35.325Z,97.95
2019-03-27T22:49:06.693Z,98.04
2019-03-27T22:51:37.991Z,98.01
2019-03-27T22:54:09.320Z,98.04
2019-03-27T22:56:40.687Z,98.04
2019-03-27T22:59:12.010Z,98.01
2019-03-27T23:01:47.644Z,98.04
2019-03-27T23:04:19.007Z,98.05
2019-03-27T23:06:50.445Z,98.09
2019-03-27T23:09:21.704Z,98.05
2019-03-27T23:11:53.017Z,98.06
2019-03-27T23:14:24.352Z,98.13
2019-03-27T23:16:55.674Z,98.12
2019-03-27T23:19:26.993Z,98.09
2019-03-27T23:21:58.316Z,98.08
2019-03-27T23:24:29.681Z,98.08
2019-03-27T23:27:01.106Z,98.04
2019-03-27T23:29:32.437Z,98.06
2019-03-27T23:32:03.770Z,98.04
2019-03-27T23:34:35.080Z,97.97
2019-03-27T23:37:06.452Z,97.88
2019-03-27T23:39:37.810Z,97.82
2019-03-27T23:42:09.166Z,97.88
2019-03-27T23:44:40.565Z,97.93
2019-03-27T23:47:11.910Z,97.90
2019-03-27T23:49:43.213Z,97.80
2019-03-27T23:52:14.552Z,97.77
2019-03-27T23:54:45.831Z,97.63
2019-03-27T23:57:17.133Z,97.57
2019-03-27T23:59:48.758Z,97.58
